Time;durP1;ratioP1;P1;durP2;ratioP2;P2;SDS_P1;SDS_P2;PMS_P1;PMS_P2;Temp;Humidity;BMP_temperature;BMP_pressure;BME280_temperature;BME280_humidity;BME280_pressure;Samples;Min_cycle;Max_cycle;Signal;HPM_P1;HPM_P2
2023/05/20 00:00:35;;;;;;;3.55;0.90;;;;;;;14.49;64.80;102282.38;6217459;28;20069;-82
2023/05/20 00:03:36;;;;;;;1.33;0.70;;;;;;;14.42;64.48;102285.28;6206590;28;20050;-83
2023/05/20 00:06:38;;;;;;;3.33;0.70;;;;;;;14.44;64.98;102282.53;6201094;28;20065;-82
2023/05/20 00:09:41;;;;;;;1.67;0.80;;;;;;;14.37;65.54;102281.13;6220196;28;20051;-81
2023/05/20 00:12:42;;;;;;;2.70;0.77;;;;;;;14.33;65.42;102275.09;6225338;28;20052;-81
2023/05/20 00:15:43;;;;;;;0.95;0.80;;;;;;;14.25;65.28;102282.50;6205716;28;20051;-81
2023/05/20 00:18:45;;;;;;;1.58;0.65;;;;;;;14.27;64.82;102277.16;6209055;28;20257;-82
2023/05/20 00:21:46;;;;;;;2.47;0.70;;;;;;;14.23;64.89;102280.88;6211174;28;20076;-81
2023/05/20 00:24:49;;;;;;;0.90;0.80;;;;;;;14.20;65.36;102280.06;6218030;28;20054;-82
2023/05/20 00:27:50;;;;;;;0.70;0.70;;;;;;;14.18;64.74;102289.88;6217499;28;20051;-82
2023/05/20 00:30:52;;;;;;;1.33;0.73;;;;;;;14.12;64.50;102278.69;6209520;28;20050;-82
2023/05/20 00:33:53;;;;;;;2.88;0.80;;;;;;;14.07;64.89;102288.59;6214900;28;20046;-83
2023/05/20 00:36:54;;;;;;;0.93;0.47;;;;;;;14.00;64.65;102295.94;6218186;28;20050;-82
2023/05/20 00:39:57;;;;;;;1.75;0.70;;;;;;;13.89;65.90;102290.25;6229438;28;20189;-81
2023/05/20 00:42:59;;;;;;;1.38;0.90;;;;;;;13.83;66.15;102291.38;6207530;28;20046;-81
2023/05/20 00:46:01;;;;;;;4.60;1.05;;;;;;;13.78;65.63;102289.84;6226897;28;20054;-81
2023/05/20 00:49:02;;;;;;;2.88;0.98;;;;;;;13.76;65.40;102286.41;6220768;28;20358;-81
2023/05/20 00:52:05;;;;;;;0.63;0.50;;;;;;;13.77;64.82;102288.16;6214612;28;20069;-81
2023/05/20 00:55:08;;;;;;;1.05;0.70;;;;;;;13.75;64.63;102284.69;6212952;28;20062;-82
2023/05/20 00:58:10;;;;;;;8.23;0.80;;;;;;;13.66;65.38;102278.00;6218612;28;20049;-81
2023/05/20 01:01:11;;;;;;;1.52;0.60;;;;;;;13.59;66.04;102276.56;6209980;28;20128;-80
2023/05/20 01:04:13;;;;;;;1.60;0.73;;;;;;;13.53;65.76;102275.00;6212439;28;20054;-81
2023/05/20 01:07:17;;;;;;;4.78;0.73;;;;;;;13.50;65.86;102272.50;6210611;28;20046;-81
2023/05/20 01:10:20;;;;;;;1.00;0.70;;;;;;;13.44;64.93;102273.63;6204211;28;20363;-79
2023/05/20 01:13:27;;;;;;;1.85;1.00;;;;;;;13.34;65.62;102272.25;6220508;28;20053;-80
2023/05/20 01:16:32;;;;;;;1.25;0.75;;;;;;;13.31;66.00;102268.91;6210505;28;20050;-82
2023/05/20 01:19:38;;;;;;;0.77;0.65;;;;;;;13.30;66.10;102261.88;6220001;28;20050;-81
2023/05/20 01:22:47;;;;;;;1.85;0.80;;;;;;;13.24;65.73;102264.78;6206718;28;20042;-80
2023/05/20 01:25:48;;;;;;;2.30;0.80;;;;;;;13.21;66.19;102261.28;6208460;28;20054;-81
2023/05/20 01:28:50;;;;;;;1.33;0.70;;;;;;;13.12;66.38;102264.31;6213435;28;20052;-81
2023/05/20 01:31:53;;;;;;;0.98;0.70;;;;;;;13.09;66.33;102260.94;6203803;28;20439;-80
2023/05/20 01:34:56;;;;;;;0.73;0.68;;;;;;;13.02;66.42;102262.94;6208614;28;20052;-81
2023/05/20 01:38:01;;;;;;;0.98;0.55;;;;;;;12.97;66.97;102264.91;6220176;28;20048;-82
2023/05/20 01:41:04;;;;;;;1.42;0.60;;;;;;;12.94;66.52;102267.66;6213551;28;20503;-81
2023/05/20 01:44:06;;;;;;;3.22;0.63;;;;;;;12.87;66.23;102266.19;6203713;28;20122;-81
2023/05/20 01:47:07;;;;;;;0.80;0.60;;;;;;;12.78;66.69;102259.50;6218070;28;20358;-81
2023/05/20 01:50:09;;;;;;;2.00;0.85;;;;;;;12.69;67.06;102263.34;6204592;28;20054;-81
2023/05/20 01:53:12;;;;;;;1.98;0.98;;;;;;;12.60;67.10;102254.91;6211636;28;20046;-80
2023/05/20 01:56:13;;;;;;;2.33;0.60;;;;;;;12.46;67.23;102259.84;6211729;28;20050;-81
2023/05/20 01:59:15;;;;;;;1.13;0.73;;;;;;;12.37;66.84;102251.34;6204721;28;20478;-82
2023/05/20 02:02:16;;;;;;;0.75;0.57;;;;;;;12.31;66.72;102261.25;6211363;28;20068;-82
2023/05/20 02:05:18;;;;;;;0.68;0.47;;;;;;;12.29;67.25;102263.94;6211586;28;20057;-82
2023/05/20 02:08:20;;;;;;;1.85;0.52;;;;;;;12.22;67.15;102262.47;6192975;28;20046;-81
2023/05/20 02:11:22;;;;;;;1.77;0.70;;;;;;;12.21;67.25;102260.72;6219627;28;20053;-82
2023/05/20 02:14:23;;;;;;;1.75;0.40;;;;;;;12.16;67.68;102262.66;6211028;28;20057;-81
2023/05/20 02:17:25;;;;;;;1.15;0.65;;;;;;;12.11;66.76;102270.75;6217299;28;20047;-81
2023/05/20 02:20:26;;;;;;;0.73;0.50;;;;;;;12.05;67.47;102270.97;6212339;28;20431;-81
2023/05/20 02:23:29;;;;;;;1.33;0.50;;;;;;;12.01;67.33;102268.50;6217470;28;20470;-81
2023/05/20 02:26:30;;;;;;;1.92;0.65;;;;;;;11.95;67.46;102274.84;6212759;28;20050;-81
2023/05/20 02:29:32;;;;;;;1.73;0.77;;;;;;;11.91;67.29;102271.44;6220686;28;20042;-82
2023/05/20 02:32:33;;;;;;;0.70;0.65;;;;;;;11.87;67.26;102269.81;6202515;28;20351;-81
2023/05/20 02:35:35;;;;;;;1.08;0.60;;;;;;;11.84;68.10;102269.91;6210623;28;20156;-81
2023/05/20 02:38:38;;;;;;;4.57;0.85;;;;;;;11.77;67.42;102270.16;6202427;28;20157;-84
2023/05/20 02:41:39;;;;;;;0.57;0.57;;;;;;;11.69;67.75;102268.66;6205450;28;20061;-82
2023/05/20 02:44:41;;;;;;;0.98;0.60;;;;;;;11.69;68.67;102259.88;6215399;28;20053;-81
2023/05/20 02:47:42;;;;;;;0.85;0.65;;;;;;;11.65;67.79;102258.25;6213632;28;20075;-81
2023/05/20 02:50:44;;;;;;;1.77;0.70;;;;;;;11.59;67.64;102255.84;6218293;28;20042;-81
2023/05/20 02:53:47;;;;;;;0.93;0.55;;;;;;;11.53;67.34;102263.94;6214947;28;20093;-80
2023/05/20 02:56:48;;;;;;;0.85;0.60;;;;;;;11.46;67.99;102260.66;6210402;28;20050;-82
2023/05/20 02:59:51;;;;;;;1.05;0.70;;;;;;;11.47;68.39;102267.63;6206097;28;20050;-83
2023/05/20 03:02:52;;;;;;;0.75;0.60;;;;;;;11.43;69.18;102264.22;6212420;28;20105;-83
2023/05/20 03:05:53;;;;;;;1.55;0.95;;;;;;;11.42;68.88;102262.50;6201678;28;20581;-83
2023/05/20 03:08:56;;;;;;;0.63;0.55;;;;;;;11.42;68.02;102266.91;6192904;28;20046;-84
2023/05/20 03:11:58;;;;;;;0.65;0.50;;;;;;;11.36;67.57;102262.72;6196697;28;20077;-84
2023/05/20 03:14:59;;;;;;;1.02;0.60;;;;;;;11.30;68.47;102264.69;6208412;28;20426;-83
2023/05/20 03:18:01;;;;;;;0.57;0.52;;;;;;;11.24;68.25;102263.09;6190594;28;20435;-82
2023/05/20 03:21:02;;;;;;;2.95;0.60;;;;;;;11.14;68.66;102262.53;6186027;28;20058;-83
2023/05/20 03:24:06;;;;;;;0.73;0.50;;;;;;;11.08;68.91;102264.47;6201902;28;20054;-84
2023/05/20 03:27:07;;;;;;;1.85;1.00;;;;;;;11.04;69.23;102274.25;6193299;28;20046;-83
2023/05/20 03:30:09;;;;;;;1.50;0.77;;;;;;;11.03;70.17;102279.56;6202511;28;20046;-82
2023/05/20 03:33:10;;;;;;;2.80;1.10;;;;;;;10.99;71.33;102278.81;6205138;28;20051;-81
2023/05/20 03:36:12;;;;;;;0.65;0.52;;;;;;;11.02;71.02;102280.47;6203232;28;20053;-83
2023/05/20 03:39:15;;;;;;;2.10;0.80;;;;;;;11.01;70.90;102279.63;6194349;28;20078;-82
2023/05/20 03:42:16;;;;;;;1.25;0.50;;;;;;;11.02;70.61;102278.69;6192754;28;20084;-82
2023/05/20 03:45:18;;;;;;;3.80;0.85;;;;;;;11.00;70.51;102277.03;6201759;28;20139;-82
2023/05/20 03:48:20;;;;;;;0.88;0.63;;;;;;;10.99;70.59;102278.81;6188779;28;20046;-82
2023/05/20 03:51:21;;;;;;;4.03;0.75;;;;;;;10.93;71.13;102277.19;6215495;28;20081;-82
2023/05/20 03:54:24;;;;;;;1.02;0.63;;;;;;;10.87;70.39;102282.66;6212094;28;20095;-83
2023/05/20 03:57:26;;;;;;;1.65;0.55;;;;;;;10.83;70.14;102277.53;6209407;28;20092;-82
2023/05/20 04:00:29;;;;;;;3.33;0.77;;;;;;;10.78;70.92;102275.03;6201489;28;20135;-81
2023/05/20 04:03:30;;;;;;;1.30;0.77;;;;;;;10.78;70.39;102275.03;6210620;28;20642;-81
2023/05/20 04:06:32;;;;;;;6.93;0.88;;;;;;;10.78;71.63;102267.16;6199278;28;20482;-82
2023/05/20 04:09:35;;;;;;;0.52;0.50;;;;;;;10.77;71.09;102275.09;6219089;28;20051;-83
2023/05/20 04:12:37;;;;;;;0.85;0.73;;;;;;;10.74;72.03;102267.28;6206127;28;20050;-82
2023/05/20 04:15:38;;;;;;;0.98;0.60;;;;;;;10.75;72.08;102267.22;6214271;28;20060;-84
2023/05/20 04:18:40;;;;;;;1.40;0.50;;;;;;;10.74;72.95;102270.78;6205757;28;20046;-83
2023/05/20 04:21:43;;;;;;;0.80;0.60;;;;;;;10.79;71.44;102273.28;6252053;22;20041;-69
2023/05/20 04:24:45;;;;;;;0.98;0.55;;;;;;;10.76;71.78;102275.97;6274177;28;20055;-69
2023/05/20 04:27:48;;;;;;;1.20;0.60;;;;;;;10.71;72.40;102277.88;6273432;28;20128;-70
2023/05/20 04:30:49;;;;;;;1.67;0.68;;;;;;;10.69;72.17;102280.56;6278488;28;20445;-70
2023/05/20 04:33:51;;;;;;;1.00;0.77;;;;;;;10.67;72.10;102277.09;6265690;28;20136;-70
2023/05/20 04:36:52;;;;;;;1.90;0.70;;;;;;;10.66;71.80;102289.41;6253927;28;20060;-70
2023/05/20 04:39:55;;;;;;;1.27;0.70;;;;;;;10.62;72.60;102282.50;6253472;28;20061;-70
2023/05/20 04:42:57;;;;;;;3.97;0.73;;;;;;;10.65;72.62;102290.31;6253443;28;20045;-69
2023/05/20 04:46:00;;;;;;;1.25;0.55;;;;;;;10.66;73.73;102284.13;6253544;28;20087;-69
2023/05/20 04:49:03;;;;;;;0.98;0.50;;;;;;;10.68;73.41;102272.75;6253122;28;20049;-70
2023/05/20 04:52:05;;;;;;;1.73;0.50;;;;;;;10.69;73.58;102279.72;6253453;28;20049;-70
2023/05/20 04:55:09;;;;;;;1.30;0.80;;;;;;;10.68;74.38;102281.50;6252867;28;20049;-69
2023/05/20 04:58:14;;;;;;;0.45;0.45;;;;;;;10.74;74.35;102281.28;6252351;28;20049;-69
2023/05/20 05:01:15;;;;;;;1.88;0.75;;;;;;;10.73;74.21;102276.09;6252532;28;20049;-69
2023/05/20 05:04:16;;;;;;;3.90;0.75;;;;;;;10.77;74.09;102283.84;6253193;28;20057;-69
2023/05/20 05:07:18;;;;;;;3.67;0.70;;;;;;;10.75;74.82;102290.03;6252907;28;20056;-69
2023/05/20 05:10:22;;;;;;;1.33;0.80;;;;;;;10.79;75.16;102279.38;6253050;28;20046;-70
2023/05/20 05:13:23;;;;;;;6.93;2.85;;;;;;;10.83;77.58;102270.50;6253111;28;20053;-69
2023/05/20 05:16:25;;;;;;;4.43;2.45;;;;;;;10.91;77.28;102271.13;6252959;28;20373;-70
2023/05/20 05:19:26;;;;;;;1.60;0.88;;;;;;;10.94;76.52;102272.81;6252724;28;20052;-69
2023/05/20 05:22:27;;;;;;;1.38;0.82;;;;;;;10.95;76.14;102264.03;6252758;28;20054;-69
2023/05/20 05:25:30;;;;;;;1.10;0.88;;;;;;;10.99;76.60;102264.78;6252723;28;20064;-69
2023/05/20 05:28:31;;;;;;;0.60;0.60;;;;;;;10.96;77.12;102264.88;6252442;28;20046;-69
2023/05/20 05:31:33;;;;;;;1.73;0.63;;;;;;;11.01;77.21;102263.81;6252822;28;20450;-70
2023/05/20 05:34:34;;;;;;;1.02;0.82;;;;;;;11.02;77.99;102270.81;6252740;28;20069;-70
2023/05/20 05:37:35;;;;;;;2.63;0.90;;;;;;;11.05;77.66;102260.19;6252759;28;20053;-69
2023/05/20 05:40:38;;;;;;;2.67;0.73;;;;;;;11.12;78.02;102266.13;6252311;28;20049;-69
2023/05/20 05:43:40;;;;;;;2.17;0.80;;;;;;;11.14;77.96;102265.16;6252631;28;20049;-70
2023/05/20 05:46:41;;;;;;;1.98;1.40;;;;;;;11.16;79.22;102271.22;6252474;28;20045;-70
2023/05/20 05:49:42;;;;;;;1.50;1.08;;;;;;;11.23;80.26;102268.44;6251955;28;20346;-70
2023/05/20 05:52:44;;;;;;;2.78;0.93;;;;;;;11.31;80.22;102264.66;6252261;28;20357;-69
2023/05/20 05:55:47;;;;;;;2.05;0.80;;;;;;;11.36;80.48;102265.34;6251838;28;20342;-70
2023/05/20 05:58:48;;;;;;;2.33;1.15;;;;;;;11.38;79.87;102262.66;6251923;28;20128;-69
2023/05/20 06:01:49;;;;;;;2.22;1.00;;;;;;;11.49;81.24;102270.19;6251982;28;20053;-70
2023/05/20 06:04:51;;;;;;;1.63;0.82;;;;;;;11.59;82.19;102274.28;6252157;28;20053;-69
2023/05/20 06:07:52;;;;;;;1.65;0.95;;;;;;;11.67;80.76;102272.22;6251891;28;20050;-69
2023/05/20 06:10:55;;;;;;;1.20;0.75;;;;;;;11.68;80.55;102272.19;6251781;28;20082;-69
2023/05/20 06:13:56;;;;;;;1.25;0.90;;;;;;;11.77;81.91;102272.81;6251717;28;20049;-69
2023/05/20 06:16:57;;;;;;;4.00;1.95;;;;;;;11.85;80.98;102274.28;6251884;28;20049;-69
2023/05/20 06:19:59;;;;;;;2.13;1.10;;;;;;;11.84;81.15;102275.19;6250024;28;20072;-69
2023/05/20 06:23:00;;;;;;;1.77;0.88;;;;;;;11.89;81.06;102270.63;6250981;28;20092;-70
2023/05/20 06:26:03;;;;;;;0.85;0.75;;;;;;;11.92;80.55;102277.56;6251485;28;20054;-69
2023/05/20 06:29:04;;;;;;;5.18;0.90;;;;;;;11.94;81.40;102270.47;6251007;28;20050;-70
2023/05/20 06:32:06;;;;;;;0.82;0.68;;;;;;;11.95;80.98;102266.94;6251230;28;20358;-70
2023/05/20 06:35:08;;;;;;;1.40;0.93;;;;;;;12.04;81.54;102261.34;6251159;28;20045;-70
2023/05/20 06:38:10;;;;;;;1.55;1.00;;;;;;;12.09;81.09;102262.03;6251045;28;20052;-69
2023/05/20 06:41:15;;;;;;;5.35;1.23;;;;;;;12.17;81.80;102256.47;6250490;28;20053;-69
2023/05/20 06:44:16;;;;;;;1.92;0.80;;;;;;;12.23;82.40;102261.53;6250957;28;20049;-69
2023/05/20 06:47:18;;;;;;;1.10;0.90;;;;;;;12.32;82.54;102255.94;6251011;28;20041;-70
2023/05/20 06:50:19;;;;;;;2.75;1.10;;;;;;;12.37;83.49;102250.50;6250842;28;20045;-69
2023/05/20 06:53:21;;;;;;;2.15;1.30;;;;;;;12.44;83.62;102247.59;6250335;28;20357;-69
2023/05/20 06:56:23;;;;;;;2.47;1.30;;;;;;;12.58;81.70;102248.81;6251005;28;20136;-70
2023/05/20 06:59:25;;;;;;;2.55;1.10;;;;;;;12.70;80.98;102240.47;6250422;28;20350;-70
2023/05/20 07:02:26;;;;;;;2.55;1.40;;;;;;;12.72;81.74;102240.38;6249965;28;20199;-69
2023/05/20 07:05:28;;;;;;;0.80;0.80;;;;;;;12.76;81.64;102234.06;6250575;28;20046;-69
2023/05/20 07:08:29;;;;;;;3.05;1.10;;;;;;;12.86;83.64;102231.03;6250024;28;20327;-70
2023/05/20 07:11:32;;;;;;;1.85;1.20;;;;;;;12.93;81.74;102232.50;6250587;28;20049;-70
2023/05/20 07:14:33;;;;;;;1.77;0.80;;;;;;;12.99;81.62;102223.50;6250474;28;20053;-69
2023/05/20 07:17:34;;;;;;;0.90;0.75;;;;;;;13.02;82.13;102218.09;6249756;28;20056;-70
2023/05/20 07:20:36;;;;;;;2.17;0.93;;;;;;;13.20;79.94;102221.78;6249965;28;20045;-70
2023/05/20 07:23:37;;;;;;;0.88;0.80;;;;;;;13.30;78.40;102219.63;6249753;28;20058;-69
2023/05/20 07:26:40;;;;;;;1.52;0.82;;;;;;;13.36;78.59;102219.41;6255416;28;20068;-69
2023/05/20 07:29:41;;;;;;;1.92;1.00;;;;;;;13.42;78.88;102217.34;6250400;28;20053;-69
2023/05/20 07:32:43;;;;;;;1.83;1.20;;;;;;;13.52;77.76;102214.34;6255514;28;20045;-69
2023/05/20 07:35:45;;;;;;;2.28;0.95;;;;;;;13.65;76.45;102205.81;6255322;28;20053;-69
2023/05/20 07:38:46;;;;;;;1.75;1.00;;;;;;;13.77;74.11;102216.81;6255120;28;20046;-69
2023/05/20 07:41:49;;;;;;;2.05;0.70;;;;;;;13.94;72.36;102211.63;6255067;28;20076;-69
2023/05/20 07:44:50;;;;;;;2.65;1.00;;;;;;;13.97;72.91;102206.19;6255352;28;20057;-69
2023/05/20 07:47:51;;;;;;;1.98;0.95;;;;;;;13.99;73.85;102198.19;6254156;28;20053;-69
2023/05/20 07:50:56;;;;;;;1.40;0.90;;;;;;;14.14;72.92;102195.75;6254710;28;20433;-69
2023/05/20 07:53:57;;;;;;;2.15;1.17;;;;;;;14.22;72.25;102190.13;6253631;28;20057;-69
2023/05/20 07:57:00;;;;;;;2.00;1.27;;;;;;;14.32;70.67;102193.19;6255158;28;20046;-69
2023/05/20 08:00:02;;;;;;;1.60;1.00;;;;;;;14.32;70.50;102201.13;6254288;28;20136;-69
2023/05/20 08:03:04;;;;;;;1.38;0.70;;;;;;;14.40;71.05;102201.66;6254864;28;20054;-69
2023/05/20 08:06:05;;;;;;;2.88;0.90;;;;;;;14.49;70.44;102193.31;6254817;28;20049;-69
2023/05/20 08:09:07;;;;;;;2.20;1.30;;;;;;;14.50;70.86;102187.09;6254353;28;20136;-69
2023/05/20 08:12:09;;;;;;;3.97;1.33;;;;;;;14.59;68.82;102205.19;6254683;28;20128;-69
2023/05/20 08:15:11;;;;;;;1.67;0.88;;;;;;;14.71;68.67;102195.78;6254496;28;20434;-69
2023/05/20 08:18:13;;;;;;;2.70;1.00;;;;;;;14.74;69.44;102195.66;6254402;28;20465;-69
2023/05/20 08:21:14;;;;;;;1.70;1.10;;;;;;;14.73;69.91;102190.44;6253868;28;20049;-69
2023/05/20 08:24:15;;;;;;;3.67;1.17;;;;;;;14.83;69.19;102183.78;6254557;28;20049;-69
2023/05/20 08:27:18;;;;;;;3.88;0.88;;;;;;;14.83;69.16;102181.97;6254218;28;20084;-69
2023/05/20 08:30:20;;;;;;;1.08;0.93;;;;;;;14.94;68.96;102186.72;6254199;28;20468;-69
2023/05/20 08:33:22;;;;;;;1.25;0.98;;;;;;;15.03;68.68;102185.44;6254122;28;20046;-69
2023/05/20 08:36:23;;;;;;;1.15;0.80;;;;;;;15.06;67.21;102180.84;6254316;28;20050;-69
2023/05/20 08:39:25;;;;;;;2.35;1.00;;;;;;;15.12;69.86;102172.59;6253634;28;20068;-69
2023/05/20 08:42:28;;;;;;;1.50;0.85;;;;;;;15.22;68.86;102175.66;6253113;28;20059;-69
2023/05/20 08:45:32;;;;;;;1.98;0.90;;;;;;;15.26;66.68;102163.09;6253959;28;20049;-69
2023/05/20 08:48:35;;;;;;;1.48;1.10;;;;;;;15.30;66.57;102169.97;6253506;28;20050;-69
2023/05/20 08:51:38;;;;;;;1.08;0.77;;;;;;;15.32;66.73;102173.41;6253398;28;20143;-69
2023/05/20 08:54:44;;;;;;;1.13;0.73;;;;;;;15.28;67.28;102163.91;6253495;28;20053;-69
2023/05/20 08:57:47;;;;;;;2.42;1.17;;;;;;;15.36;68.98;102175.84;6253803;28;20187;-69
2023/05/20 09:00:49;;;;;;;2.22;1.02;;;;;;;15.49;68.32;102176.06;6253237;28;20070;-69
2023/05/20 09:03:51;;;;;;;1.55;0.88;;;;;;;15.54;67.67;102168.75;6246855;28;20045;-69
2023/05/20 09:06:54;;;;;;;1.92;0.80;;;;;;;15.55;66.37;102156.34;6251033;28;20622;-69
2023/05/20 09:09:55;;;;;;;0.93;0.70;;;;;;;15.67;66.32;102163.69;6251194;28;20052;-69
2023/05/20 09:13:00;;;;;;;1.83;1.00;;;;;;;15.61;67.11;102166.63;6249689;28;20362;-69
2023/05/20 09:16:02;;;;;;;3.03;0.80;;;;;;;15.69;68.22;102156.50;6252982;28;20055;-70
2023/05/20 09:19:06;;;;;;;1.48;0.98;;;;;;;15.72;67.62;102149.25;6252320;28;20484;-69
2023/05/20 09:22:07;;;;;;;1.98;0.98;;;;;;;15.70;68.85;102151.13;6252708;28;20363;-69
2023/05/20 09:25:11;;;;;;;1.67;0.85;;;;;;;15.78;68.14;102149.88;6253038;28;20057;-69
2023/05/20 09:28:13;;;;;;;2.47;1.05;;;;;;;15.80;67.50;102148.84;6252602;28;20129;-69
2023/05/20 09:31:15;;;;;;;2.40;1.45;;;;;;;15.76;66.22;102154.38;6252780;28;20099;-69
2023/05/20 09:34:16;;;;;;;2.25;1.10;;;;;;;15.79;68.71;102146.28;6252806;28;20049;-69
2023/05/20 09:37:20;;;;;;;1.73;0.90;;;;;;;15.83;69.58;102143.38;6252854;28;20064;-69
2023/05/20 09:40:25;;;;;;;1.52;0.88;;;;;;;15.87;66.90;102146.72;6250771;28;20046;-70
2023/05/20 09:43:27;;;;;;;3.28;0.75;;;;;;;15.91;64.15;102135.88;6252533;28;20057;-70
2023/05/20 09:46:29;;;;;;;1.02;0.88;;;;;;;15.94;66.36;102137.50;6251857;28;20049;-69
2023/05/20 09:49:32;;;;;;;4.40;0.98;;;;;;;15.99;65.56;102140.78;6249775;28;20049;-69
2023/05/20 09:52:34;;;;;;;3.70;1.00;;;;;;;16.10;64.95;102133.09;6252159;28;20464;-69
2023/05/20 09:55:36;;;;;;;1.38;0.70;;;;;;;16.18;66.39;102133.53;6251545;28;20132;-69
2023/05/20 09:58:40;;;;;;;1.92;1.02;;;;;;;16.44;64.07;102128.56;6252074;28;20061;-69
2023/05/20 10:01:41;;;;;;;2.25;0.73;;;;;;;16.46;62.70;102130.22;6251878;28;20049;-69
2023/05/20 10:04:49;;;;;;;1.58;0.90;;;;;;;16.42;64.46;102128.66;6252191;28;20056;-69
2023/05/20 10:08:19;;;;;;;2.20;0.60;;;;;;;16.55;63.73;102125.34;6251827;28;20366;-69
2023/05/20 10:11:34;;;;;;;1.95;1.23;;;;;;;16.63;64.60;102118.66;6251857;28;20045;-69
2023/05/20 10:14:49;;;;;;;2.08;0.68;;;;;;;16.71;64.44;102113.75;6241795;28;20358;-69
2023/05/20 10:18:01;;;;;;;1.48;0.93;;;;;;;16.73;60.97;102114.56;6240138;28;20056;-69
2023/05/20 10:21:03;;;;;;;1.58;1.10;;;;;;;16.69;62.61;102112.97;6242415;28;20049;-69
2023/05/20 10:24:08;;;;;;;0.88;0.80;;;;;;;16.59;64.24;102109.16;6234124;28;20041;-71
2023/05/20 10:27:13;;;;;;;2.15;0.73;;;;;;;16.64;63.23;102114.19;6237040;28;20052;-70
2023/05/20 10:30:19;;;;;;;2.85;1.13;;;;;;;16.56;63.51;102109.31;6236261;28;20068;-70
2023/05/20 10:33:21;;;;;;;0.98;0.50;;;;;;;16.52;63.27;102104.25;6239454;28;20049;-71
2023/05/20 10:36:25;;;;;;;2.03;0.90;;;;;;;16.48;62.17;102101.78;6234937;28;20061;-70
2023/05/20 10:39:28;;;;;;;2.63;0.98;;;;;;;16.45;62.24;102107.28;6239929;28;20041;-70
2023/05/20 10:42:30;;;;;;;2.78;0.80;;;;;;;16.44;62.49;102108.22;6242210;28;20139;-71
2023/05/20 10:45:36;;;;;;;1.48;0.98;;;;;;;16.43;62.63;102108.28;6232670;28;20369;-71
2023/05/20 10:48:42;;;;;;;1.38;0.80;;;;;;;16.35;62.53;102107.84;6231484;28;20052;-70
2023/05/20 10:51:44;;;;;;;2.30;0.98;;;;;;;16.29;63.83;102106.41;6225963;28;20065;-70
2023/05/20 10:54:47;;;;;;;3.45;0.70;;;;;;;16.23;64.49;102104.09;6238963;28;20430;-70
2023/05/20 10:57:48;;;;;;;1.35;0.77;;;;;;;16.18;64.97;102114.13;6242026;28;20053;-71
2023/05/20 11:00:53;;;;;;;1.50;0.90;;;;;;;16.12;66.28;102107.31;6245424;28;20053;-69
2023/05/20 11:03:56;;;;;;;3.58;1.95;;;;;;;16.08;65.04;102113.78;6250280;28;20053;-70
2023/05/20 11:06:58;;;;;;;5.72;1.60;;;;;;;16.03;64.97;102110.47;6249945;28;20057;-69
2023/05/20 11:09:59;;;;;;;1.77;1.27;;;;;;;16.03;65.16;102093.72;6250385;28;20049;-70
2023/05/20 11:13:02;;;;;;;1.42;0.90;;;;;;;16.05;65.63;102098.00;6249873;28;20054;-70
2023/05/20 11:16:06;;;;;;;1.08;0.60;;;;;;;16.08;66.01;102096.97;6249194;28;20049;-70
2023/05/20 11:19:08;;;;;;;1.42;0.73;;;;;;;16.03;66.61;102097.22;6248477;28;20064;-69
2023/05/20 11:22:09;;;;;;;1.27;0.75;;;;;;;16.01;65.24;102095.63;6249764;28;20473;-70
2023/05/20 11:25:11;;;;;;;2.78;1.00;;;;;;;15.97;67.55;102092.28;6245581;28;20124;-70
2023/05/20 11:28:13;;;;;;;1.00;0.60;;;;;;;15.98;66.57;102099.28;6247022;28;20068;-69
2023/05/20 11:31:16;;;;;;;1.05;0.80;;;;;;;15.97;65.38;102097.56;6238383;28;20069;-69
2023/05/20 11:34:21;;;;;;;1.98;1.15;;;;;;;15.95;66.26;102094.16;6249902;28;20050;-70
2023/05/20 11:37:24;;;;;;;2.45;1.10;;;;;;;16.00;66.38;102102.72;6242153;28;20532;-70
2023/05/20 11:40:26;;;;;;;1.13;0.80;;;;;;;16.00;66.20;102086.81;6250144;28;20056;-69
2023/05/20 11:43:28;;;;;;;1.55;0.88;;;;;;;16.06;66.34;102085.59;6249327;28;20462;-69
2023/05/20 11:46:30;;;;;;;1.70;0.88;;;;;;;16.21;67.24;102087.41;6249751;28;20132;-69
2023/05/20 11:49:39;;;;;;;0.82;0.82;;;;;;;16.37;66.37;102077.66;6244597;28;20453;-69
2023/05/20 11:52:40;;;;;;;2.22;1.15;;;;;;;16.76;67.45;102079.03;6245179;28;20061;-69
2023/05/20 11:55:46;;;;;;;1.08;0.90;;;;;;;17.05;66.29;102076.44;6253742;28;20053;-69
2023/05/20 11:58:47;;;;;;;1.83;1.10;;;;;;;17.18;64.77;102075.63;6247697;28;20057;-69
2023/05/20 12:01:50;;;;;;;1.17;0.77;;;;;;;17.33;66.30;102073.00;6244366;28;20049;-70
2023/05/20 12:04:51;;;;;;;1.60;0.70;;;;;;;17.44;62.93;102063.44;6250047;28;20064;-70
2023/05/20 12:07:53;;;;;;;0.60;0.60;;;;;;;17.81;63.45;102062.97;6249884;28;20365;-69
2023/05/20 12:10:54;;;;;;;1.02;0.77;;;;;;;18.13;64.05;102058.28;6249597;28;20045;-69
2023/05/20 12:13:56;;;;;;;1.90;0.70;;;;;;;18.21;59.92;102055.94;6249901;28;20068;-69
2023/05/20 12:16:58;;;;;;;2.28;0.85;;;;;;;18.58;60.36;102056.25;6250431;28;20042;-70
2023/05/20 12:20:00;;;;;;;1.85;0.90;;;;;;;18.84;59.90;102055.34;6254175;28;20049;-70
2023/05/20 12:23:01;;;;;;;1.90;1.23;;;;;;;18.83;59.13;102040.34;6254232;28;20049;-70
2023/05/20 12:26:04;;;;;;;1.58;0.75;;;;;;;18.55;59.14;102043.13;6254561;28;20053;-70
2023/05/20 12:29:05;;;;;;;0.95;0.80;;;;;;;18.37;62.21;102031.88;6254049;28;20045;-70
2023/05/20 12:32:08;;;;;;;1.05;0.90;;;;;;;18.21;63.12;102026.69;6254261;28;20128;-70
2023/05/20 12:35:10;;;;;;;1.05;0.90;;;;;;;18.01;61.23;102020.00;6253181;28;20476;-69
2023/05/20 12:38:12;;;;;;;1.52;0.90;;;;;;;17.97;61.68;102007.84;6252682;28;20448;-70
2023/05/20 12:41:13;;;;;;;1.80;0.80;;;;;;;18.08;65.31;102002.69;6253693;28;20046;-69
2023/05/20 12:44:15;;;;;;;1.83;1.20;;;;;;;18.14;63.49;102001.44;6253345;28;20045;-70
2023/05/20 12:47:18;;;;;;;2.88;0.90;;;;;;;18.12;62.57;102001.56;6252998;28;20056;-70
2023/05/20 12:50:19;;;;;;;1.98;1.10;;;;;;;18.19;62.78;101997.53;6245150;28;20056;-69
2023/05/20 12:53:21;;;;;;;2.38;0.77;;;;;;;18.15;61.64;101996.00;6253572;28;20049;-70
2023/05/20 12:56:24;;;;;;;1.65;1.10;;;;;;;18.17;63.13;101994.13;6253495;28;20120;-70
2023/05/20 12:59:25;;;;;;;5.25;1.88;;;;;;;18.18;62.30;101997.63;6253226;28;20363;-70
2023/05/20 13:02:28;;;;;;;2.25;1.00;;;;;;;18.21;64.42;101989.44;6253387;28;20042;-70
2023/05/20 13:05:29;;;;;;;4.03;1.17;;;;;;;18.36;61.08;101988.44;6253552;28;20046;-70
2023/05/20 13:08:30;;;;;;;2.47;1.20;;;;;;;18.51;62.74;101990.06;6253124;28;20462;-70
2023/05/20 13:11:32;;;;;;;3.15;0.90;;;;;;;18.75;61.97;101974.25;6251468;28;20045;-70
2023/05/20 13:14:33;;;;;;;1.58;1.00;;;;;;;18.89;60.95;101972.47;6246651;28;20052;-70
2023/05/20 13:17:36;;;;;;;0.95;0.88;;;;;;;18.63;62.35;101975.09;6252578;28;20053;-70
2023/05/20 13:20:38;;;;;;;2.53;0.80;;;;;;;18.83;63.08;101964.91;6250554;28;20046;-70
2023/05/20 13:23:41;;;;;;;0.93;0.88;;;;;;;19.40;60.41;101959.13;6252671;28;20057;-70
2023/05/20 13:26:42;;;;;;;1.80;1.08;;;;;;;19.88;58.82;101968.09;6252863;28;20464;-70
2023/05/20 13:29:44;;;;;;;1.33;0.70;;;;;;;19.71;58.71;101963.13;6252337;28;20354;-70
2023/05/20 13:32:46;;;;;;;3.38;1.08;;;;;;;19.34;59.12;101955.06;6252780;28;20049;-70
2023/05/20 13:35:48;;;;;;;1.02;0.93;;;;;;;19.11;60.56;101953.19;6252478;28;20060;-70
2023/05/20 13:38:49;;;;;;;1.35;1.10;;;;;;;18.97;59.86;101941.69;6245974;28;20057;-69
2023/05/20 13:41:52;;;;;;;1.60;1.00;;;;;;;18.95;61.53;101935.63;6240409;28;20046;-70
2023/05/20 13:44:53;;;;;;;0.85;0.80;;;;;;;18.80;60.41;101939.31;6252053;28;20050;-70
2023/05/20 13:47:56;;;;;;;1.90;0.90;;;;;;;18.61;62.37;101936.19;6252288;28;20053;-71
2023/05/20 13:50:57;;;;;;;1.27;0.80;;;;;;;18.58;61.96;101936.44;6250299;28;20347;-71
2023/05/20 13:53:58;;;;;;;1.38;1.10;;;;;;;18.49;61.94;101928.09;6252136;28;20470;-70
2023/05/20 13:57:01;;;;;;;2.67;1.10;;;;;;;18.42;64.11;101916.16;6252173;28;20064;-71
2023/05/20 14:00:04;;;;;;;0.68;0.68;;;;;;;18.39;63.58;101926.13;6251991;28;20107;-70
2023/05/20 14:03:07;;;;;;;1.40;1.10;;;;;;;18.31;62.71;101934.66;6251932;28;20128;-70
2023/05/20 14:06:09;;;;;;;1.73;1.10;;;;;;;18.12;64.28;101929.72;6252240;28;20052;-71